PLT2828 SBGR-SBFN
Flight info
| Callsign | PLT2828 |
|---|---|
| Flight time | 3h 15m |
| Altitude | 35000 |
| Route | VUMEV UZ14 AMBET UN857 FNR |
| Aircraft | A320/M-SDE3FGHIRWY/LB1 |
Departure
| Time | 2026-05-04 13:31 |
|---|---|
| Airport | São Paulo/Guarulhos–Governor André Franco Montoro International Airport (SBGR) |
Arrival
| Time | 2026-05-04 16:47 |
|---|---|
| Airport | Fernando de Noronha Airport (SBFN) |
| Time | Latitude | Longitude | Altitude | Speed | Heading |
|---|---|---|---|---|---|
| 2026-05-04 13:01 | -23.42769 | -46.48350 | 2468 ft | 0 kts | 85° |
| 2026-05-04 13:20 | -23.42771 | -46.48364 | 2468 ft | 3 kts | 84° |
| 2026-05-04 13:20 | -23.42773 | -46.48386 | 2468 ft | 3 kts | 84° |
| 2026-05-04 13:21 | -23.42774 | -46.48405 | 2468 ft | 3 kts | 97° |
| 2026-05-04 13:21 | -23.42769 | -46.48424 | 2468 ft | 3 kts | 128° |
| 2026-05-04 13:21 | -23.42755 | -46.48438 | 2469 ft | 2 kts | 155° |
| 2026-05-04 13:21 | -23.42753 | -46.48439 | 2469 ft | 0 kts | 156° |
| 2026-05-04 13:25 | -23.42755 | -46.48438 | 2468 ft | 1 kts | 156° |
| 2026-05-04 13:25 | -23.42766 | -46.48433 | 2474 ft | 3 kts | 157° |
| 2026-05-04 13:25 | -23.42786 | -46.48428 | 2470 ft | 3 kts | 173° |
| 2026-05-04 13:26 | -23.42810 | -46.48427 | 2472 ft | 4 kts | 178° |
| 2026-05-04 13:26 | -23.42838 | -46.48426 | 2468 ft | 4 kts | 180° |
| 2026-05-04 13:26 | -23.42870 | -46.48426 | 2470 ft | 5 kts | 180° |
| 2026-05-04 13:26 | -23.42905 | -46.48435 | 2468 ft | 6 kts | 203° |
| 2026-05-04 13:27 | -23.42943 | -46.48452 | 2468 ft | 6 kts | 194° |
| 2026-05-04 13:27 | -23.42988 | -46.48453 | 2470 ft | 7 kts | 178° |
| 2026-05-04 13:27 | -23.43036 | -46.48450 | 2471 ft | 7 kts | 176° |
| 2026-05-04 13:27 | -23.43086 | -46.48435 | 2470 ft | 8 kts | 163° |
| 2026-05-04 13:28 | -23.43141 | -46.48417 | 2468 ft | 8 kts | 162° |
| 2026-05-04 13:28 | -23.43199 | -46.48398 | 2471 ft | 9 kts | 162° |
| 2026-05-04 13:28 | -23.43260 | -46.48377 | 2471 ft | 9 kts | 164° |
| 2026-05-04 13:28 | -23.43321 | -46.48358 | 2470 ft | 9 kts | 164° |
| 2026-05-04 13:29 | -23.43379 | -46.48342 | 2470 ft | 8 kts | 165° |
| 2026-05-04 13:29 | -23.43427 | -46.48314 | 2471 ft | 6 kts | 104° |
| 2026-05-04 13:29 | -23.43413 | -46.48276 | 2472 ft | 4 kts | 71° |
| 2026-05-04 13:30 | -23.43412 | -46.48272 | 2472 ft | 3 kts | 72° |
| 2026-05-04 13:30 | -23.43354 | -46.48062 | 2471 ft | 62 kts | 73° |
| 2026-05-04 13:30 | -23.43174 | -46.47395 | 2468 ft | 119 kts | 73° |
| 2026-05-04 13:31 | -23.42896 | -46.46369 | 2473 ft | 162 kts | 73° |
| 2026-05-04 13:31 | -23.42596 | -46.45162 | 3014 ft | 161 kts | 73° |
| 2026-05-04 13:31 | -23.42316 | -46.43955 | 3401 ft | 170 kts | 76° |
| 2026-05-04 13:31 | -23.41951 | -46.42653 | 3559 ft | 190 kts | 71° |
| 2026-05-04 13:32 | -23.41503 | -46.41216 | 3705 ft | 212 kts | 71° |
| 2026-05-04 13:32 | -23.41003 | -46.39612 | 3856 ft | 236 kts | 71° |
| 2026-05-04 13:32 | -23.40466 | -46.37842 | 4327 ft | 242 kts | 71° |
| 2026-05-04 13:32 | -23.40028 | -46.36285 | 6124 ft | 195 kts | 70° |
| 2026-05-04 13:33 | -23.39682 | -46.34939 | 6976 ft | 194 kts | 71° |
| 2026-05-04 13:33 | -23.39284 | -46.33299 | 6808 ft | 247 kts | 74° |
| 2026-05-04 13:33 | -23.38970 | -46.31546 | 7898 ft | 219 kts | 79° |
| 2026-05-04 13:33 | -23.38800 | -46.30010 | 8867 ft | 203 kts | 83° |
| 2026-05-04 13:34 | -23.38577 | -46.28326 | 8431 ft | 253 kts | 77° |
| 2026-05-04 13:34 | -23.38134 | -46.26401 | 8848 ft | 252 kts | 71° |
| 2026-05-04 13:34 | -23.37591 | -46.24739 | 10081 ft | 224 kts | 66° |
| 2026-05-04 13:34 | -23.36937 | -46.23174 | 10367 ft | 238 kts | 62° |
| 2026-05-04 13:35 | -23.36078 | -46.21535 | 10356 ft | 250 kts | 56° |
| 2026-05-04 13:35 | -23.33986 | -46.18586 | 10517 ft | 259 kts | 45° |
| 2026-05-04 13:35 | -23.32739 | -46.17268 | 11361 ft | 241 kts | 39° |
| 2026-05-04 13:36 | -23.31448 | -46.16121 | 11873 ft | 242 kts | 34° |
| 2026-05-04 13:36 | -23.30007 | -46.15057 | 12023 ft | 259 kts | 29° |
| 2026-05-04 13:36 | -23.28422 | -46.14104 | 12507 ft | 257 kts | 23° |
| 2026-05-04 13:36 | -23.26826 | -46.13336 | 13240 ft | 247 kts | 18° |
| 2026-05-04 13:37 | -23.25177 | -46.12716 | 13512 ft | 258 kts | 13° |
| 2026-05-04 13:37 | -23.23406 | -46.12235 | 13707 ft | 270 kts | 7° |
| 2026-05-04 13:37 | -23.21563 | -46.11896 | 14236 ft | 270 kts | 5° |
| 2026-05-04 13:37 | -23.20290 | -46.11676 | 14433 ft | 279 kts | 6° |
| 2026-05-04 13:38 | -23.17740 | -46.10888 | 14766 ft | 297 kts | 19° |
| 2026-05-04 13:38 | -23.15802 | -46.09982 | 15080 ft | 308 kts | 22° |
| 2026-05-04 13:38 | -23.13871 | -46.08917 | 15477 ft | 314 kts | 26° |
| 2026-05-04 13:38 | -23.11998 | -46.07790 | 16240 ft | 301 kts | 24° |
| 2026-05-04 13:39 | -23.10122 | -46.06729 | 16588 ft | 311 kts | 23° |
| 2026-05-04 13:39 | -23.08148 | -46.05633 | 16738 ft | 325 kts | 23° |
| 2026-05-04 13:39 | -23.06089 | -46.04504 | 16947 ft | 338 kts | 23° |
| 2026-05-04 13:39 | -23.03955 | -46.03345 | 17199 ft | 348 kts | 22° |
| 2026-05-04 13:40 | -23.01741 | -46.02191 | 17423 ft | 358 kts | 17° |
| 2026-05-04 13:40 | -22.99338 | -46.01356 | 17556 ft | 368 kts | 10° |
| 2026-05-04 13:40 | -22.96808 | -46.00679 | 17690 ft | 382 kts | 9° |
| 2026-05-04 13:40 | -22.94191 | -45.99938 | 17941 ft | 393 kts | 12° |
| 2026-05-04 13:41 | -22.91554 | -45.99050 | 18336 ft | 400 kts | 14° |
| 2026-05-04 13:41 | -22.88949 | -45.97952 | 18753 ft | 407 kts | 23° |
| 2026-05-04 13:41 | -22.86582 | -45.96282 | 19138 ft | 415 kts | 33° |
| 2026-05-04 13:42 | -22.81899 | -45.92562 | 19972 ft | 419 kts | 32° |
| 2026-05-04 13:42 | -22.79501 | -45.90743 | 20404 ft | 422 kts | 31° |
| 2026-05-04 13:42 | -22.77075 | -45.88936 | 20826 ft | 425 kts | 31° |
| 2026-05-04 13:42 | -22.74624 | -45.87121 | 21242 ft | 428 kts | 31° |
| 2026-05-04 13:43 | -22.72158 | -45.85293 | 21661 ft | 431 kts | 31° |
| 2026-05-04 13:43 | -22.69677 | -45.83441 | 22071 ft | 434 kts | 31° |
| 2026-05-04 13:43 | -22.67184 | -45.81571 | 22476 ft | 439 kts | 31° |
| 2026-05-04 13:43 | -22.64668 | -45.79680 | 22901 ft | 441 kts | 32° |
| 2026-05-04 13:44 | -22.62138 | -45.77777 | 23298 ft | 444 kts | 32° |
| 2026-05-04 13:44 | -22.59594 | -45.75859 | 23671 ft | 447 kts | 31° |
| 2026-05-04 13:44 | -22.57032 | -45.73930 | 24017 ft | 450 kts | 31° |
| 2026-05-04 13:44 | -22.54457 | -45.71994 | 24351 ft | 452 kts | 31° |
| 2026-05-04 13:45 | -22.51873 | -45.70053 | 24701 ft | 453 kts | 31° |
| 2026-05-04 13:45 | -22.49278 | -45.68106 | 25022 ft | 455 kts | 31° |
| 2026-05-04 13:45 | -22.46665 | -45.66149 | 25337 ft | 458 kts | 31° |
| 2026-05-04 13:45 | -22.44040 | -45.64187 | 25654 ft | 460 kts | 31° |
| 2026-05-04 13:46 | -22.41432 | -45.62239 | 25958 ft | 463 kts | 31° |
| 2026-05-04 13:46 | -22.38778 | -45.60258 | 26255 ft | 465 kts | 31° |
| 2026-05-04 13:46 | -22.36113 | -45.58266 | 26551 ft | 467 kts | 31° |
| 2026-05-04 13:46 | -22.33435 | -45.56263 | 26861 ft | 469 kts | 30° |
| 2026-05-04 13:47 | -22.30747 | -45.54250 | 27151 ft | 471 kts | 30° |
| 2026-05-04 13:47 | -22.28047 | -45.52231 | 27428 ft | 473 kts | 30° |
| 2026-05-04 13:47 | -22.25336 | -45.50204 | 27697 ft | 476 kts | 30° |
| 2026-05-04 13:47 | -22.22603 | -45.48165 | 27956 ft | 478 kts | 30° |
| 2026-05-04 13:48 | -22.19864 | -45.46124 | 28253 ft | 480 kts | 30° |
| 2026-05-04 13:48 | -22.17105 | -45.44068 | 28512 ft | 483 kts | 30° |
| 2026-05-04 13:48 | -22.14332 | -45.42003 | 28781 ft | 485 kts | 30° |
| 2026-05-04 13:48 | -22.11549 | -45.39934 | 29055 ft | 487 kts | 30° |
| 2026-05-04 13:49 | -22.08751 | -45.37853 | 29373 ft | 488 kts | 29° |
| 2026-05-04 13:49 | -22.05964 | -45.35778 | 29780 ft | 487 kts | 29° |
| 2026-05-04 13:49 | -22.03181 | -45.33690 | 30160 ft | 487 kts | 30° |
| 2026-05-04 13:49 | -22.01366 | -45.32264 | 30400 ft | 488 kts | 31° |
| 2026-05-04 13:50 | -21.98666 | -45.30033 | 30715 ft | 489 kts | 33° |
| 2026-05-04 13:50 | -21.95145 | -45.26994 | 31150 ft | 489 kts | 34° |
| 2026-05-04 13:50 | -21.92509 | -45.24687 | 31492 ft | 488 kts | 33° |
| 2026-05-04 13:50 | -21.89867 | -45.22388 | 31815 ft | 488 kts | 33° |
| 2026-05-04 13:51 | -21.88078 | -45.20847 | 32034 ft | 487 kts | 33° |
| 2026-05-04 13:51 | -21.85421 | -45.18587 | 32360 ft | 486 kts | 32° |
| 2026-05-04 13:51 | -21.82759 | -45.16349 | 32703 ft | 485 kts | 32° |
| 2026-05-04 13:51 | -21.80097 | -45.14124 | 33033 ft | 484 kts | 31° |
| 2026-05-04 13:52 | -21.74810 | -45.09714 | 33225 ft | 483 kts | 32° |
| 2026-05-04 13:52 | -21.72159 | -45.07490 | 33249 ft | 483 kts | 32° |
| 2026-05-04 13:53 | -21.66862 | -45.03033 | 33246 ft | 483 kts | 32° |
| 2026-05-04 13:53 | -21.61567 | -44.98576 | 33246 ft | 483 kts | 32° |
| 2026-05-04 13:54 | -21.53608 | -44.91917 | 33244 ft | 483 kts | 32° |
| 2026-05-04 13:55 | -21.45682 | -44.85271 | 33244 ft | 484 kts | 32° |
| 2026-05-04 13:55 | -21.37728 | -44.78619 | 33240 ft | 483 kts | 32° |
| 2026-05-04 13:56 | -21.32428 | -44.74202 | 33241 ft | 482 kts | 31° |
| 2026-05-04 13:57 | -21.24482 | -44.67576 | 33244 ft | 482 kts | 32° |
| 2026-05-04 13:58 | -21.13899 | -44.58759 | 33243 ft | 481 kts | 31° |
| 2026-05-04 13:58 | -21.06005 | -44.52194 | 33244 ft | 481 kts | 32° |
| 2026-05-04 13:59 | -21.00723 | -44.47802 | 33245 ft | 481 kts | 31° |
| 2026-05-04 14:00 | -20.92796 | -44.41223 | 33259 ft | 481 kts | 31° |
| 2026-05-04 14:00 | -20.84863 | -44.34650 | 33260 ft | 480 kts | 31° |
| 2026-05-04 14:01 | -20.79580 | -44.30282 | 33258 ft | 480 kts | 31° |
| 2026-05-04 14:02 | -20.71679 | -44.23764 | 33259 ft | 481 kts | 31° |
| 2026-05-04 14:02 | -20.66395 | -44.19405 | 33257 ft | 479 kts | 31° |
| 2026-05-04 14:03 | -20.61132 | -44.15052 | 33261 ft | 479 kts | 32° |
| 2026-05-04 14:03 | -20.55874 | -44.10621 | 33261 ft | 485 kts | 32° |
| 2026-05-04 14:04 | -20.47899 | -44.03890 | 33249 ft | 488 kts | 32° |
| 2026-05-04 14:04 | -20.42524 | -43.99481 | 33262 ft | 486 kts | 31° |
| 2026-05-04 14:05 | -20.34446 | -43.92929 | 33264 ft | 487 kts | 31° |
| 2026-05-04 14:06 | -20.29113 | -43.88579 | 33247 ft | 486 kts | 32° |
| 2026-05-04 14:06 | -20.23743 | -43.84194 | 33251 ft | 486 kts | 32° |
| 2026-05-04 14:07 | -20.18375 | -43.79809 | 33263 ft | 487 kts | 31° |
| 2026-05-04 14:07 | -20.12998 | -43.75426 | 33274 ft | 487 kts | 31° |
| 2026-05-04 14:08 | -20.07618 | -43.71049 | 33270 ft | 486 kts | 31° |
| 2026-05-04 14:08 | -20.02233 | -43.66669 | 33273 ft | 486 kts | 31° |
| 2026-05-04 14:09 | -19.94161 | -43.60106 | 33283 ft | 487 kts | 31° |
| 2026-05-04 14:10 | -19.86103 | -43.53569 | 33265 ft | 488 kts | 32° |
| 2026-05-04 14:10 | -19.80722 | -43.49187 | 33278 ft | 487 kts | 32° |
| 2026-05-04 14:11 | -19.75343 | -43.44816 | 33271 ft | 487 kts | 32° |
| 2026-05-04 14:11 | -19.67267 | -43.38276 | 33264 ft | 486 kts | 32° |
| 2026-05-04 14:12 | -19.61887 | -43.33923 | 33268 ft | 486 kts | 32° |
| 2026-05-04 14:13 | -19.53832 | -43.27383 | 33266 ft | 486 kts | 32° |
| 2026-05-04 14:13 | -19.48469 | -43.23033 | 33249 ft | 485 kts | 32° |
| 2026-05-04 14:14 | -19.43103 | -43.18696 | 33253 ft | 485 kts | 32° |
| 2026-05-04 14:14 | -19.35091 | -43.12234 | 33255 ft | 485 kts | 32° |
| 2026-05-04 14:15 | -19.24364 | -43.03579 | 33248 ft | 484 kts | 32° |
| 2026-05-04 14:16 | -19.16327 | -42.97111 | 33247 ft | 485 kts | 32° |
| 2026-05-04 14:17 | -19.08291 | -42.90635 | 33242 ft | 483 kts | 32° |
| 2026-05-04 14:18 | -19.00258 | -42.84189 | 33243 ft | 483 kts | 32° |
| 2026-05-04 14:19 | -18.89599 | -42.75642 | 33231 ft | 482 kts | 32° |
| 2026-05-04 14:19 | -18.84256 | -42.71364 | 33231 ft | 482 kts | 32° |
| 2026-05-04 14:20 | -18.78910 | -42.67089 | 33237 ft | 482 kts | 32° |
| 2026-05-04 14:20 | -18.73558 | -42.62818 | 33236 ft | 482 kts | 32° |
| 2026-05-04 14:21 | -18.65538 | -42.56405 | 33224 ft | 482 kts | 32° |
| 2026-05-04 14:21 | -18.60189 | -42.52141 | 33229 ft | 482 kts | 32° |
| 2026-05-04 14:22 | -18.54881 | -42.47907 | 33234 ft | 482 kts | 32° |
| 2026-05-04 14:22 | -18.49541 | -42.43643 | 33214 ft | 482 kts | 33° |
| 2026-05-04 14:23 | -18.41529 | -42.37263 | 33233 ft | 481 kts | 32° |
| 2026-05-04 14:24 | -18.36189 | -42.33021 | 33238 ft | 481 kts | 32° |
| 2026-05-04 14:24 | -18.30853 | -42.28783 | 33230 ft | 480 kts | 32° |
| 2026-05-04 14:25 | -18.25519 | -42.24553 | 33222 ft | 480 kts | 33° |
| 2026-05-04 14:25 | -18.17564 | -42.18244 | 33231 ft | 479 kts | 33° |
| 2026-05-04 14:26 | -18.12241 | -42.14020 | 33233 ft | 479 kts | 32° |
| 2026-05-04 14:26 | -18.06920 | -42.09811 | 33214 ft | 479 kts | 33° |
| 2026-05-04 14:27 | -18.01599 | -42.05606 | 33223 ft | 478 kts | 33° |
| 2026-05-04 14:27 | -17.96277 | -42.01409 | 33224 ft | 478 kts | 33° |
| 2026-05-04 14:28 | -17.90965 | -41.97203 | 33228 ft | 478 kts | 32° |
| 2026-05-04 14:28 | -17.85696 | -41.93040 | 33215 ft | 477 kts | 33° |
| 2026-05-04 14:29 | -17.75094 | -41.84688 | 33237 ft | 476 kts | 33° |
| 2026-05-04 14:30 | -17.69797 | -41.80520 | 33239 ft | 475 kts | 33° |
| 2026-05-04 14:31 | -17.61858 | -41.74275 | 33236 ft | 475 kts | 32° |
| 2026-05-04 14:32 | -17.51285 | -41.65975 | 33234 ft | 474 kts | 33° |
| 2026-05-04 14:32 | -17.46034 | -41.61842 | 33237 ft | 475 kts | 33° |
| 2026-05-04 14:33 | -17.40751 | -41.57697 | 33218 ft | 474 kts | 33° |
| 2026-05-04 14:33 | -17.35474 | -41.53571 | 33232 ft | 474 kts | 33° |
| 2026-05-04 14:34 | -17.30198 | -41.49436 | 33233 ft | 473 kts | 33° |
| 2026-05-04 14:34 | -17.24920 | -41.45309 | 33232 ft | 474 kts | 33° |
| 2026-05-04 14:35 | -17.19642 | -41.41186 | 33217 ft | 473 kts | 33° |
| 2026-05-04 14:35 | -17.14368 | -41.37060 | 33221 ft | 474 kts | 33° |
| 2026-05-04 14:36 | -17.09087 | -41.32940 | 33226 ft | 474 kts | 33° |
| 2026-05-04 14:36 | -17.03808 | -41.28815 | 33225 ft | 474 kts | 33° |
| 2026-05-04 14:37 | -16.98527 | -41.24696 | 33227 ft | 474 kts | 33° |
| 2026-05-04 14:37 | -16.93242 | -41.20574 | 33217 ft | 474 kts | 33° |
| 2026-05-04 14:38 | -16.87957 | -41.16459 | 33215 ft | 474 kts | 33° |
| 2026-05-04 14:38 | -16.82694 | -41.12372 | 33218 ft | 474 kts | 33° |
| 2026-05-04 14:39 | -16.77404 | -41.08267 | 33203 ft | 474 kts | 33° |
| 2026-05-04 14:39 | -16.72109 | -41.04156 | 33211 ft | 475 kts | 33° |
| 2026-05-04 14:40 | -16.64162 | -40.97982 | 33203 ft | 475 kts | 33° |
| 2026-05-04 14:40 | -16.58869 | -40.93865 | 33202 ft | 475 kts | 33° |
| 2026-05-04 14:41 | -16.53563 | -40.89760 | 33204 ft | 475 kts | 33° |
| 2026-05-04 14:42 | -16.42951 | -40.81551 | 33210 ft | 475 kts | 34° |
| 2026-05-04 14:42 | -16.37650 | -40.77444 | 33200 ft | 475 kts | 33° |
| 2026-05-04 14:43 | -16.32345 | -40.73341 | 33191 ft | 475 kts | 34° |
| 2026-05-04 14:43 | -16.27038 | -40.69246 | 33203 ft | 475 kts | 34° |
| 2026-05-04 14:44 | -16.21763 | -40.65185 | 33199 ft | 474 kts | 34° |
| 2026-05-04 14:44 | -16.16459 | -40.61093 | 33196 ft | 474 kts | 34° |
| 2026-05-04 14:45 | -16.11166 | -40.57004 | 33197 ft | 474 kts | 34° |
| 2026-05-04 14:45 | -16.05862 | -40.52927 | 33188 ft | 474 kts | 34° |
| 2026-05-04 14:46 | -16.00567 | -40.48846 | 33192 ft | 473 kts | 34° |
| 2026-05-04 14:46 | -15.95283 | -40.44778 | 33190 ft | 473 kts | 34° |
| 2026-05-04 14:47 | -15.89994 | -40.40710 | 33191 ft | 473 kts | 34° |
| 2026-05-04 14:47 | -15.85595 | -40.37338 | 33177 ft | 472 kts | 34° |
| 2026-05-04 14:48 | -15.80301 | -40.33289 | 33179 ft | 472 kts | 34° |
| 2026-05-04 14:48 | -15.74160 | -40.28584 | 33179 ft | 472 kts | 34° |
| 2026-05-04 14:49 | -15.69736 | -40.25189 | 33182 ft | 472 kts | 34° |
| 2026-05-04 14:49 | -15.64491 | -40.21170 | 33185 ft | 471 kts | 34° |
| 2026-05-04 14:50 | -15.59214 | -40.17138 | 33166 ft | 471 kts | 34° |
| 2026-05-04 14:50 | -15.53938 | -40.13113 | 33165 ft | 471 kts | 34° |
| 2026-05-04 14:51 | -15.48656 | -40.09088 | 33163 ft | 471 kts | 34° |
| 2026-05-04 14:51 | -15.43369 | -40.05067 | 33165 ft | 471 kts | 34° |
| 2026-05-04 14:52 | -15.38116 | -40.01079 | 33162 ft | 471 kts | 34° |
| 2026-05-04 14:52 | -15.32835 | -39.97065 | 33169 ft | 471 kts | 34° |
| 2026-05-04 14:53 | -15.27555 | -39.93046 | 33170 ft | 471 kts | 35° |
| 2026-05-04 14:53 | -15.22279 | -39.89033 | 33163 ft | 470 kts | 34° |
| 2026-05-04 14:54 | -15.17006 | -39.85036 | 33147 ft | 470 kts | 35° |
| 2026-05-04 14:54 | -15.11738 | -39.81036 | 33147 ft | 469 kts | 35° |
| 2026-05-04 14:55 | -15.06471 | -39.77035 | 33152 ft | 469 kts | 35° |
| 2026-05-04 14:55 | -15.01210 | -39.73048 | 33145 ft | 469 kts | 35° |
| 2026-05-04 14:56 | -14.95943 | -39.69063 | 33148 ft | 469 kts | 35° |
| 2026-05-04 14:56 | -14.90675 | -39.65091 | 33131 ft | 469 kts | 35° |
| 2026-05-04 14:57 | -14.85391 | -39.61126 | 33132 ft | 469 kts | 35° |
| 2026-05-04 14:57 | -14.80148 | -39.57184 | 33134 ft | 469 kts | 35° |
| 2026-05-04 14:58 | -14.74867 | -39.53216 | 33131 ft | 469 kts | 35° |
| 2026-05-04 14:58 | -14.69593 | -39.49256 | 33130 ft | 468 kts | 35° |
| 2026-05-04 14:59 | -14.64326 | -39.45291 | 33125 ft | 468 kts | 35° |
| 2026-05-04 15:00 | -14.56452 | -39.39380 | 33264 ft | 471 kts | 34° |
| 2026-05-04 15:00 | -14.53796 | -39.37393 | 33530 ft | 472 kts | 34° |
| 2026-05-04 15:00 | -14.51136 | -39.35402 | 33837 ft | 472 kts | 34° |
| 2026-05-04 15:01 | -14.45821 | -39.31416 | 34410 ft | 471 kts | 35° |
| 2026-05-04 15:01 | -14.43167 | -39.29429 | 34687 ft | 471 kts | 34° |
| 2026-05-04 15:01 | -14.40520 | -39.27448 | 34953 ft | 470 kts | 34° |
| 2026-05-04 15:01 | -14.37870 | -39.25467 | 35084 ft | 471 kts | 34° |
| 2026-05-04 15:02 | -14.32578 | -39.21504 | 35105 ft | 470 kts | 34° |
| 2026-05-04 15:02 | -14.27288 | -39.17545 | 35109 ft | 470 kts | 34° |
| 2026-05-04 15:03 | -14.21994 | -39.13578 | 35105 ft | 469 kts | 34° |
| 2026-05-04 15:03 | -14.16699 | -39.09631 | 35103 ft | 469 kts | 34° |
| 2026-05-04 15:04 | -14.11450 | -39.05710 | 35108 ft | 469 kts | 35° |
| 2026-05-04 15:04 | -14.06158 | -39.01760 | 35108 ft | 470 kts | 34° |
| 2026-05-04 15:05 | -14.00859 | -38.97819 | 35109 ft | 470 kts | 34° |
| 2026-05-04 15:05 | -13.95556 | -38.93878 | 35105 ft | 470 kts | 35° |
| 2026-05-04 15:06 | -13.90261 | -38.89930 | 35108 ft | 470 kts | 35° |
| 2026-05-04 15:07 | -13.82329 | -38.84012 | 35105 ft | 470 kts | 35° |
| 2026-05-04 15:07 | -13.77028 | -38.80073 | 35107 ft | 470 kts | 34° |
| 2026-05-04 15:08 | -13.71728 | -38.76141 | 35103 ft | 470 kts | 35° |
| 2026-05-04 15:08 | -13.66470 | -38.72221 | 35105 ft | 469 kts | 35° |
| 2026-05-04 15:09 | -13.61174 | -38.68292 | 35106 ft | 469 kts | 35° |
| 2026-05-04 15:09 | -13.55878 | -38.64365 | 35109 ft | 469 kts | 35° |
| 2026-05-04 15:10 | -13.47936 | -38.58480 | 35105 ft | 469 kts | 35° |
| 2026-05-04 15:11 | -13.39989 | -38.52595 | 35106 ft | 469 kts | 35° |
| 2026-05-04 15:11 | -13.34689 | -38.48670 | 35106 ft | 469 kts | 35° |
| 2026-05-04 15:12 | -13.29391 | -38.44746 | 35102 ft | 469 kts | 35° |
| 2026-05-04 15:12 | -13.24122 | -38.40845 | 35103 ft | 469 kts | 35° |
| 2026-05-04 15:13 | -13.18820 | -38.36922 | 35097 ft | 469 kts | 35° |
| 2026-05-04 15:13 | -13.13518 | -38.33004 | 35098 ft | 469 kts | 35° |
| 2026-05-04 15:14 | -13.08216 | -38.29097 | 35101 ft | 470 kts | 35° |
| 2026-05-04 15:14 | -13.02908 | -38.25187 | 35101 ft | 470 kts | 35° |
| 2026-05-04 15:15 | -12.97604 | -38.21279 | 35097 ft | 469 kts | 36° |
| 2026-05-04 15:15 | -12.92299 | -38.17366 | 35097 ft | 470 kts | 35° |
| 2026-05-04 15:16 | -12.84343 | -38.11497 | 35097 ft | 470 kts | 35° |
| 2026-05-04 15:17 | -12.76410 | -38.05658 | 35097 ft | 470 kts | 35° |
| 2026-05-04 15:17 | -12.68442 | -37.99801 | 35089 ft | 470 kts | 36° |
| 2026-05-04 15:18 | -12.63132 | -37.95903 | 35087 ft | 470 kts | 36° |
| 2026-05-04 15:19 | -12.55167 | -37.90046 | 35092 ft | 470 kts | 36° |
| 2026-05-04 15:19 | -12.47198 | -37.84197 | 35090 ft | 470 kts | 35° |
| 2026-05-04 15:20 | -12.41882 | -37.80308 | 35083 ft | 470 kts | 36° |
| 2026-05-04 15:20 | -12.36565 | -37.76413 | 35085 ft | 470 kts | 36° |
| 2026-05-04 15:21 | -12.31253 | -37.72513 | 35089 ft | 470 kts | 36° |
| 2026-05-04 15:22 | -12.23310 | -37.66694 | 35096 ft | 470 kts | 36° |
| 2026-05-04 15:22 | -12.15332 | -37.60857 | 35091 ft | 470 kts | 36° |
| 2026-05-04 15:23 | -12.10011 | -37.56975 | 35087 ft | 470 kts | 35° |
| 2026-05-04 15:23 | -12.04692 | -37.53089 | 35086 ft | 470 kts | 36° |
| 2026-05-04 15:24 | -11.94063 | -37.45329 | 35085 ft | 469 kts | 36° |
| 2026-05-04 15:25 | -11.88755 | -37.41458 | 35087 ft | 468 kts | 35° |
| 2026-05-04 15:26 | -11.80781 | -37.35689 | 35083 ft | 468 kts | 35° |
| 2026-05-04 15:26 | -11.72838 | -37.29954 | 35077 ft | 468 kts | 35° |
| 2026-05-04 15:27 | -11.64879 | -37.24184 | 35071 ft | 468 kts | 35° |
| 2026-05-04 15:28 | -11.56920 | -37.18423 | 35077 ft | 467 kts | 35° |
| 2026-05-04 15:29 | -11.48967 | -37.12687 | 35070 ft | 467 kts | 35° |
| 2026-05-04 15:30 | -11.30470 | -36.99340 | 35066 ft | 466 kts | 35° |
| 2026-05-04 15:31 | -11.22525 | -36.93609 | 35068 ft | 466 kts | 35° |
| 2026-05-04 15:32 | -11.09293 | -36.84090 | 35064 ft | 466 kts | 35° |
| 2026-05-04 15:34 | -10.96051 | -36.74569 | 35054 ft | 466 kts | 35° |
| 2026-05-04 15:34 | -10.88145 | -36.68874 | 35054 ft | 466 kts | 35° |
| 2026-05-04 15:35 | -10.80182 | -36.63167 | 35049 ft | 467 kts | 34° |
| 2026-05-04 15:36 | -10.72179 | -36.57482 | 35052 ft | 468 kts | 34° |
| 2026-05-04 15:36 | -10.66849 | -36.53690 | 35051 ft | 468 kts | 34° |
| 2026-05-04 15:37 | -10.61512 | -36.49891 | 35048 ft | 468 kts | 34° |
| 2026-05-04 15:37 | -10.56211 | -36.46115 | 35043 ft | 469 kts | 34° |
| 2026-05-04 15:38 | -10.50864 | -36.42319 | 35045 ft | 469 kts | 34° |
| 2026-05-04 15:38 | -10.45515 | -36.38513 | 35047 ft | 469 kts | 34° |
| 2026-05-04 15:39 | -10.40163 | -36.34712 | 35050 ft | 470 kts | 34° |
| 2026-05-04 15:40 | -10.32130 | -36.29004 | 35048 ft | 470 kts | 34° |
| 2026-05-04 15:40 | -10.26767 | -36.25200 | 35047 ft | 470 kts | 34° |
| 2026-05-04 15:41 | -10.21435 | -36.21424 | 35049 ft | 471 kts | 34° |
| 2026-05-04 15:41 | -10.16066 | -36.17622 | 35053 ft | 471 kts | 34° |
| 2026-05-04 15:42 | -10.10693 | -36.13830 | 35053 ft | 471 kts | 34° |
| 2026-05-04 15:42 | -10.05322 | -36.10021 | 35050 ft | 471 kts | 34° |
| 2026-05-04 15:43 | -9.99955 | -36.06208 | 35051 ft | 471 kts | 34° |
| 2026-05-04 15:43 | -9.94574 | -36.02399 | 35049 ft | 471 kts | 34° |
| 2026-05-04 15:44 | -9.89231 | -35.98619 | 35053 ft | 471 kts | 34° |
| 2026-05-04 15:44 | -9.83857 | -35.94818 | 35053 ft | 471 kts | 34° |
| 2026-05-04 15:45 | -9.78485 | -35.91011 | 35048 ft | 471 kts | 34° |
| 2026-05-04 15:45 | -9.73983 | -35.87828 | 35049 ft | 471 kts | 33° |
| 2026-05-04 15:46 | -9.68595 | -35.84041 | 35049 ft | 471 kts | 33° |
| 2026-05-04 15:46 | -9.63245 | -35.80270 | 35051 ft | 471 kts | 33° |
| 2026-05-04 15:47 | -9.57868 | -35.76474 | 35053 ft | 471 kts | 33° |
| 2026-05-04 15:47 | -9.52486 | -35.72671 | 35054 ft | 471 kts | 33° |
| 2026-05-04 15:48 | -9.47107 | -35.68880 | 35052 ft | 471 kts | 33° |
| 2026-05-04 15:48 | -9.39044 | -35.63202 | 35049 ft | 470 kts | 33° |
| 2026-05-04 15:49 | -9.33672 | -35.59414 | 35045 ft | 470 kts | 33° |
| 2026-05-04 15:49 | -9.28339 | -35.55654 | 35044 ft | 470 kts | 33° |
| 2026-05-04 15:50 | -9.22932 | -35.51848 | 35035 ft | 470 kts | 33° |
| 2026-05-04 15:50 | -9.17599 | -35.48094 | 35036 ft | 470 kts | 33° |
| 2026-05-04 15:51 | -9.12232 | -35.44320 | 35037 ft | 470 kts | 33° |
| 2026-05-04 15:51 | -9.06866 | -35.40545 | 35037 ft | 470 kts | 33° |
| 2026-05-04 15:52 | -9.01496 | -35.36773 | 35034 ft | 469 kts | 33° |
| 2026-05-04 15:52 | -8.96127 | -35.33006 | 35032 ft | 469 kts | 33° |
| 2026-05-04 15:53 | -8.90757 | -35.29237 | 35033 ft | 469 kts | 33° |
| 2026-05-04 15:53 | -8.85397 | -35.25471 | 35030 ft | 469 kts | 33° |
| 2026-05-04 15:54 | -8.80038 | -35.21707 | 35026 ft | 469 kts | 33° |
| 2026-05-04 15:54 | -8.74712 | -35.17970 | 35026 ft | 469 kts | 33° |
| 2026-05-04 15:55 | -8.69354 | -35.14215 | 35024 ft | 468 kts | 33° |
| 2026-05-04 15:55 | -8.63999 | -35.10463 | 35017 ft | 468 kts | 32° |
| 2026-05-04 15:56 | -8.58651 | -35.06710 | 35018 ft | 468 kts | 32° |
| 2026-05-04 15:56 | -8.53302 | -35.02960 | 35012 ft | 468 kts | 32° |
| 2026-05-04 15:57 | -8.47946 | -34.99211 | 35013 ft | 468 kts | 32° |
| 2026-05-04 15:57 | -8.42597 | -34.95460 | 35015 ft | 468 kts | 32° |
| 2026-05-04 15:58 | -8.37249 | -34.91710 | 35007 ft | 468 kts | 32° |
| 2026-05-04 15:58 | -8.31898 | -34.87973 | 35008 ft | 468 kts | 32° |
| 2026-05-04 15:59 | -8.26547 | -34.84238 | 35012 ft | 468 kts | 32° |
| 2026-05-04 15:59 | -8.21199 | -34.80490 | 35011 ft | 468 kts | 32° |
| 2026-05-04 16:00 | -8.15914 | -34.76728 | 35010 ft | 468 kts | 34° |
| 2026-05-04 16:00 | -8.10787 | -34.72657 | 35011 ft | 469 kts | 37° |
| 2026-05-04 16:01 | -8.05742 | -34.68462 | 35001 ft | 470 kts | 37° |
| 2026-05-04 16:01 | -8.00651 | -34.64309 | 35000 ft | 470 kts | 37° |
| 2026-05-04 16:02 | -7.95521 | -34.60215 | 34994 ft | 470 kts | 36° |
| 2026-05-04 16:03 | -7.87812 | -34.54075 | 34996 ft | 471 kts | 36° |
| 2026-05-04 16:03 | -7.82686 | -34.49969 | 34995 ft | 471 kts | 37° |
| 2026-05-04 16:04 | -7.77561 | -34.45860 | 34991 ft | 471 kts | 36° |
| 2026-05-04 16:04 | -7.72018 | -34.42515 | 34992 ft | 466 kts | 25° |
| 2026-05-04 16:04 | -7.69097 | -34.41001 | 34991 ft | 466 kts | 25° |
| 2026-05-04 16:05 | -7.63362 | -34.38022 | 34990 ft | 466 kts | 25° |
| 2026-05-04 16:06 | -7.54715 | -34.33522 | 34990 ft | 466 kts | 25° |
| 2026-05-04 16:07 | -7.43170 | -34.27518 | 34969 ft | 468 kts | 25° |
| 2026-05-04 16:08 | -7.31595 | -34.21499 | 34975 ft | 469 kts | 25° |
| 2026-05-04 16:09 | -7.17084 | -34.13968 | 34975 ft | 470 kts | 25° |
| 2026-05-04 16:10 | -7.05495 | -34.07953 | 34981 ft | 470 kts | 25° |
| 2026-05-04 16:11 | -6.93850 | -34.01911 | 34986 ft | 471 kts | 25° |
| 2026-05-04 16:12 | -6.76383 | -33.92846 | 34992 ft | 470 kts | 25° |
| 2026-05-04 16:13 | -6.64779 | -33.86845 | 34985 ft | 470 kts | 25° |
| 2026-05-04 16:14 | -6.53145 | -33.80816 | 34987 ft | 470 kts | 25° |
| 2026-05-04 16:16 | -6.38596 | -33.73297 | 34989 ft | 470 kts | 25° |
| 2026-05-04 16:17 | -6.24089 | -33.65789 | 34969 ft | 470 kts | 25° |
| 2026-05-04 16:18 | -6.12445 | -33.59784 | 34979 ft | 470 kts | 25° |
| 2026-05-04 16:19 | -5.97616 | -33.52944 | 34971 ft | 468 kts | 19° |
| 2026-05-04 16:20 | -5.82523 | -33.46796 | 34978 ft | 468 kts | 21° |
| 2026-05-04 16:22 | -5.67519 | -33.40468 | 34976 ft | 468 kts | 21° |
| 2026-05-04 16:23 | -5.49534 | -33.32943 | 34976 ft | 467 kts | 21° |
| 2026-05-04 16:24 | -5.37406 | -33.27865 | 32745 ft | 473 kts | 21° |
| 2026-05-04 16:25 | -5.31378 | -33.25339 | 31726 ft | 466 kts | 22° |
| 2026-05-04 16:26 | -5.19601 | -33.20416 | 29776 ft | 454 kts | 22° |
| 2026-05-04 16:26 | -5.10972 | -33.16799 | 28325 ft | 441 kts | 22° |
| 2026-05-04 16:27 | -5.05352 | -33.14450 | 27439 ft | 432 kts | 23° |
| 2026-05-04 16:28 | -4.97134 | -33.11032 | 26204 ft | 420 kts | 24° |
| 2026-05-04 16:28 | -4.89211 | -33.07719 | 24775 ft | 405 kts | 23° |
| 2026-05-04 16:29 | -4.79103 | -33.03498 | 22519 ft | 383 kts | 24° |
| 2026-05-04 16:30 | -4.71762 | -33.00435 | 21164 ft | 377 kts | 24° |
| 2026-05-04 16:31 | -4.66946 | -32.98424 | 20294 ft | 372 kts | 24° |
| 2026-05-04 16:31 | -4.59850 | -32.95460 | 19050 ft | 364 kts | 24° |
| 2026-05-04 16:32 | -4.52896 | -32.92567 | 17807 ft | 357 kts | 24° |
| 2026-05-04 16:33 | -4.48348 | -32.90664 | 16918 ft | 352 kts | 24° |
| 2026-05-04 16:33 | -4.43897 | -32.88798 | 16013 ft | 343 kts | 24° |
| 2026-05-04 16:34 | -4.39533 | -32.86970 | 14534 ft | 337 kts | 25° |
| 2026-05-04 16:34 | -4.37381 | -32.86070 | 13838 ft | 333 kts | 25° |
| 2026-05-04 16:35 | -4.31078 | -32.83436 | 12044 ft | 321 kts | 25° |
| 2026-05-04 16:35 | -4.24945 | -32.80878 | 10888 ft | 316 kts | 25° |
| 2026-05-04 16:36 | -4.22944 | -32.80043 | 10508 ft | 315 kts | 25° |
| 2026-05-04 16:36 | -4.18976 | -32.78384 | 10122 ft | 299 kts | 25° |
| 2026-05-04 16:37 | -4.15194 | -32.76807 | 9296 ft | 290 kts | 25° |
| 2026-05-04 16:37 | -4.13339 | -32.76032 | 8704 ft | 289 kts | 25° |
| 2026-05-04 16:37 | -4.09624 | -32.74477 | 7959 ft | 289 kts | 25° |
| 2026-05-04 16:38 | -4.05941 | -32.72939 | 7260 ft | 289 kts | 25° |
| 2026-05-04 16:39 | -4.00438 | -32.70639 | 6487 ft | 277 kts | 25° |
| 2026-05-04 16:39 | -3.97548 | -32.69436 | 6291 ft | 264 kts | 26° |
| 2026-05-04 16:40 | -3.94274 | -32.68074 | 6070 ft | 245 kts | 26° |
| 2026-05-04 16:40 | -3.91231 | -32.66772 | 5635 ft | 236 kts | 28° |
| 2026-05-04 16:41 | -3.88226 | -32.65407 | 5000 ft | 237 kts | 28° |
| 2026-05-04 16:41 | -3.84241 | -32.62908 | 4063 ft | 209 kts | 70° |
| 2026-05-04 16:42 | -3.84166 | -32.59038 | 3315 ft | 174 kts | 96° |
| 2026-05-04 16:43 | -3.84349 | -32.56668 | 2847 ft | 169 kts | 97° |
| 2026-05-04 16:43 | -3.84529 | -32.54343 | 2399 ft | 166 kts | 96° |
| 2026-05-04 16:43 | -3.84618 | -32.53193 | 2172 ft | 165 kts | 97° |
| 2026-05-04 16:44 | -3.84941 | -32.49024 | 1385 ft | 140 kts | 97° |
| 2026-05-04 16:45 | -3.85090 | -32.47085 | 1015 ft | 139 kts | 96° |
| 2026-05-04 16:46 | -3.85292 | -32.44195 | 479 ft | 136 kts | 98° |
| 2026-05-04 16:46 | -3.85441 | -32.42314 | 177 ft | 119 kts | 99° |
| 2026-05-04 16:47 | -3.85504 | -32.41572 | 183 ft | 12 kts | 85° |
| 2026-05-04 16:47 | -3.85515 | -32.41532 | 182 ft | 5 kts | 275° |
| 2026-05-04 16:48 | -3.85492 | -32.41673 | 183 ft | 10 kts | 271° |
| 2026-05-04 16:48 | -3.85489 | -32.41748 | 182 ft | 12 kts | 276° |
| 2026-05-04 16:49 | -3.85469 | -32.41944 | 182 ft | 16 kts | 274° |
| 2026-05-04 16:49 | -3.85455 | -32.42187 | 178 ft | 20 kts | 274° |
| 2026-05-04 16:50 | -3.85435 | -32.42437 | 174 ft | 18 kts | 275° |
| 2026-05-04 16:50 | -3.85417 | -32.42678 | 173 ft | 8 kts | 274° |
| 2026-05-04 16:51 | -3.85459 | -32.42742 | 173 ft | 6 kts | 199° |
| 2026-05-04 16:51 | -3.85494 | -32.42754 | 173 ft | 5 kts | 200° |
| 2026-05-04 16:51 | -3.85567 | -32.42770 | 173 ft | 4 kts | 181° |
| 2026-05-04 16:52 | -3.85585 | -32.42769 | 173 ft | 0 kts | 179° |